Time;durP1;ratioP1;P1;durP2;ratioP2;P2;SDS_P1;SDS_P2;PMS_P1;PMS_P2;Temp;Humidity;BMP_temperature;BMP_pressure;BME280_temperature;BME280_humidity;BME280_pressure;Samples;Min_cycle;Max_cycle;Signal;HPM_P1;HPM_P2
2021/11/07 00:06:35;;;;;;;4.32;2.92;;;9.00;99.90;;;;;;4945077;28;20039;-67
2021/11/07 00:11:34;;;;;;;5.22;2.33;;;9.00;99.90;;;;;;4936629;28;20122;-70
2021/11/07 00:14:05;;;;;;;5.78;2.45;;;9.00;99.90;;;;;;4932951;28;20046;-67
2021/11/07 00:16:35;;;;;;;6.80;2.88;;;9.00;99.90;;;;;;4939839;28;20134;-68
2021/11/07 00:24:34;;;;;;;7.00;3.00;;;9.00;99.90;;;;;;4939445;28;20051;-67
2021/11/07 00:29:47;;;;;;;4.03;2.50;;;9.00;99.90;;;;;;4932981;28;20050;-75
2021/11/07 00:32:23;;;;;;;7.95;2.22;;;9.00;99.90;;;;;;4939841;28;20054;-64
2021/11/07 00:37:34;;;;;;;3.33;3.03;;;9.10;99.90;;;;;;4938175;28;20208;-71
2021/11/07 00:42:48;;;;;;;2.92;1.95;;;9.00;99.90;;;;;;4942755;28;20060;-75
2021/11/07 00:47:57;;;;;;;;;;;9.00;99.90;;;;;;4943065;28;20131;-65
2021/11/07 00:50:28;;;;;;;6.65;2.78;;;9.00;99.90;;;;;;4942671;28;20013;-71
2021/11/07 00:53:10;;;;;;;5.63;2.45;;;9.00;99.90;;;;;;4939295;28;20141;-65
2021/11/07 00:55:47;;;;;;;3.08;2.08;;;9.00;99.90;;;;;;4939060;28;20062;-75
2021/11/07 00:58:18;;;;;;;4.80;2.03;;;9.00;99.90;;;;;;4938840;28;20081;-69
2021/11/07 01:01:02;;;;;;;10.40;2.85;;;9.00;99.90;;;;;;4941526;28;20081;-68
2021/11/07 01:03:29;;;;;;;3.45;2.00;;;9.00;99.90;;;;;;4940445;28;20049;-74
2021/11/07 01:05:57;;;;;;;3.03;2.25;;;9.00;99.90;;;;;;4942819;28;20105;-67
2021/11/07 01:08:24;;;;;;;3.17;2.55;;;9.00;99.90;;;;;;4945358;28;20253;-67
2021/11/07 01:10:51;;;;;;;3.28;1.92;;;8.90;99.90;;;;;;4942024;28;20105;-64
2021/11/07 01:13:18;;;;;;;4.85;1.85;;;9.00;99.90;;;;;;4924327;28;20039;-67
2021/11/07 01:15:45;;;;;;;3.25;1.88;;;8.90;99.90;;;;;;4935437;28;20133;-72
2021/11/07 01:18:12;;;;;;;2.75;1.58;;;8.90;99.90;;;;;;4956821;28;20113;-64
2021/11/07 01:20:39;;;;;;;3.47;1.95;;;8.90;99.90;;;;;;4940921;28;20461;-63
2021/11/07 01:25:47;;;;;;;3.47;2.65;;;9.00;99.90;;;;;;4938078;28;20050;-67
2021/11/07 01:28:15;;;;;;;3.45;3.15;;;9.00;99.90;;;;;;4940538;28;20315;-63
2021/11/07 01:31:01;;;;;;;6.82;3.15;;;8.90;99.90;;;;;;4940767;28;20154;-64
2021/11/07 01:33:29;;;;;;;6.53;3.45;;;8.90;99.90;;;;;;4940990;28;20074;-75
2021/11/07 01:36:10;;;;;;;9.32;3.72;;;8.90;99.90;;;;;;4938956;28;20512;-63
2021/11/07 01:38:45;;;;;;;7.13;3.58;;;8.90;99.90;;;;;;4941621;28;20612;-68
2021/11/07 01:43:43;;;;;;;3.73;3.40;;;8.90;99.90;;;;;;4943359;28;20125;-76
2021/11/07 01:48:49;;;;;;;5.97;3.97;;;8.90;99.90;;;;;;4931420;28;20070;-64
2021/11/07 01:51:16;;;;;;;6.47;4.20;;;9.00;99.90;;;;;;4919639;28;20134;-69
2021/11/07 01:53:45;;;;;;;7.70;4.75;;;8.90;99.90;;;;;;4933524;28;20161;-73
2021/11/07 01:56:14;;;;;;;8.18;5.72;;;9.00;99.90;;;;;;4925353;28;20174;-66
2021/11/07 01:58:44;;;;;;;5.50;4.55;;;8.90;99.90;;;;;;4925372;28;20103;-66
2021/11/07 02:01:11;;;;;;;;;;;8.90;99.90;;;;;;4936424;28;20083;-66
2021/11/07 02:03:39;;;;;;;6.07;5.10;;;9.00;99.90;;;;;;4940776;28;20383;-72
2021/11/07 02:06:06;;;;;;;7.63;4.95;;;9.00;99.90;;;;;;4943140;28;20047;-68
2021/11/07 02:08:33;;;;;;;9.23;5.15;;;8.90;99.90;;;;;;4940285;28;20113;-65
2021/11/07 02:11:00;;;;;;;10.50;5.97;;;9.00;99.90;;;;;;4938748;28;20589;-73
2021/11/07 02:13:27;;;;;;;5.30;4.47;;;9.00;99.90;;;;;;4938244;28;22967;-68
2021/11/07 02:15:56;;;;;;;5.25;4.57;;;9.00;99.90;;;;;;4942441;28;20074;-67
2021/11/07 02:18:24;;;;;;;11.23;6.03;;;9.00;99.90;;;;;;4940210;28;20437;-63
2021/11/07 02:20:52;;;;;;;7.82;4.68;;;9.00;99.90;;;;;;4938638;28;21259;-70
2021/11/07 02:23:22;;;;;;;8.68;4.22;;;9.00;99.90;;;;;;4939144;28;20181;-67
2021/11/07 02:25:52;;;;;;;8.00;5.18;;;9.00;99.90;;;;;;4942911;28;20146;-64
2021/11/07 02:28:29;;;;;;;6.85;6.25;;;9.00;99.90;;;;;;4938485;28;20144;-70
2021/11/07 02:30:58;;;;;;;7.82;5.60;;;9.00;99.90;;;;;;4940654;28;20069;-69
2021/11/07 02:33:26;;;;;;;8.88;5.18;;;9.00;99.90;;;;;;4937510;28;20137;-68
2021/11/07 02:36:02;;;;;;;9.10;6.75;;;9.10;99.90;;;;;;4939609;28;20054;-75
2021/11/07 02:38:29;;;;;;;8.82;6.03;;;9.10;99.90;;;;;;4929854;28;20078;-75
2021/11/07 02:40:55;;;;;;;7.45;6.43;;;9.10;99.90;;;;;;4917864;28;20119;-67
2021/11/07 02:43:22;;;;;;;10.38;7.35;;;9.10;99.90;;;;;;4920342;28;20106;-64
2021/11/07 02:45:49;;;;;;;11.52;7.68;;;9.10;99.90;;;;;;4935562;28;20121;-65
2021/11/07 02:48:17;;;;;;;9.00;7.85;;;9.10;99.90;;;;;;4943609;28;20059;-73
2021/11/07 02:50:44;;;;;;;13.77;8.10;;;9.10;99.90;;;;;;4944830;28;20103;-65
2021/11/07 02:53:11;;;;;;;12.23;9.25;;;9.10;99.90;;;;;;4936930;28;20097;-69
2021/11/07 02:55:39;;;;;;;11.45;9.63;;;9.10;99.90;;;;;;4937213;28;20075;-72
2021/11/07 02:58:06;;;;;;;18.58;11.07;;;9.10;99.90;;;;;;4939403;28;20057;-68
2021/11/07 03:00:33;;;;;;;16.10;10.93;;;9.10;99.90;;;;;;4937119;28;20082;-65
2021/11/07 03:03:01;;;;;;;19.27;13.77;;;9.10;99.90;;;;;;4944308;28;20077;-72
2021/11/07 03:05:31;;;;;;;16.52;12.25;;;9.10;99.90;;;;;;4940504;28;20060;-73
2021/11/07 03:07:58;;;;;;;20.27;12.82;;;9.10;99.90;;;;;;4941771;28;20113;-74
2021/11/07 03:10:29;;;;;;;22.60;14.65;;;9.10;99.90;;;;;;4938355;28;20142;-74
2021/11/07 03:13:08;;;;;;;23.90;15.30;;;9.20;99.90;;;;;;4943021;28;20111;-69
2021/11/07 03:15:36;;;;;;;23.15;16.23;;;9.20;99.90;;;;;;4934930;28;20073;-74
2021/11/07 03:18:04;;;;;;;23.75;16.70;;;9.20;99.90;;;;;;4940776;28;20137;-68
2021/11/07 03:20:31;;;;;;;28.05;20.23;;;9.20;99.90;;;;;;4943326;28;20545;-70
2021/11/07 03:22:59;;;;;;;25.88;17.95;;;9.10;99.90;;;;;;4947793;28;20058;-68
2021/11/07 03:25:26;;;;;;;27.55;17.83;;;9.10;99.90;;;;;;4940085;28;20077;-65
2021/11/07 03:27:54;;;;;;;30.30;17.42;;;9.10;99.90;;;;;;4943223;28;20048;-70
2021/11/07 03:33:23;;;;;;;24.15;17.55;;;9.10;99.90;;;;;;4943356;28;20055;-67
2021/11/07 03:35:50;;;;;;;31.13;18.17;;;9.10;99.90;;;;;;4936056;28;20081;-74
2021/11/07 03:38:17;;;;;;;30.63;18.65;;;9.10;99.90;;;;;;4942319;28;20051;-74
2021/11/07 03:40:44;;;;;;;34.22;20.25;;;9.10;99.90;;;;;;4938182;28;20161;-73
2021/11/07 03:43:11;;;;;;;33.40;19.60;;;9.10;99.90;;;;;;4936566;28;20102;-74
2021/11/07 03:45:38;;;;;;;29.48;20.27;;;9.10;99.90;;;;;;4933114;28;20114;-71
2021/11/07 03:48:06;;;;;;;29.40;21.00;;;9.10;99.90;;;;;;4937684;28;20047;-67
2021/11/07 03:50:33;;;;;;;42.45;22.17;;;9.00;99.90;;;;;;4930009;28;20054;-65
2021/11/07 03:53:00;;;;;;;28.52;19.98;;;9.10;99.90;;;;;;4945584;28;20133;-68
2021/11/07 03:55:28;;;;;;;39.60;20.02;;;9.10;99.90;;;;;;4941791;28;20133;-75
2021/11/07 03:57:55;;;;;;;40.70;21.77;;;9.10;99.90;;;;;;4933231;28;21322;-74
2021/11/07 04:00:22;;;;;;;32.60;22.15;;;9.00;99.90;;;;;;4931736;28;20185;-74
2021/11/07 04:02:50;;;;;;;32.70;20.20;;;9.00;99.90;;;;;;4928371;28;20055;-75
2021/11/07 04:05:18;;;;;;;23.65;19.15;;;9.00;99.90;;;;;;4918581;28;20134;-63
2021/11/07 04:07:45;;;;;;;28.15;20.67;;;9.00;99.90;;;;;;4924548;28;20500;-64
2021/11/07 04:10:12;;;;;;;27.17;19.27;;;9.00;99.90;;;;;;4944987;28;20228;-67
2021/11/07 04:12:39;;;;;;;27.55;20.75;;;9.00;99.90;;;;;;4946226;28;20119;-63
2021/11/07 04:15:08;;;;;;;30.10;20.00;;;9.10;99.90;;;;;;4937288;28;20165;-68
2021/11/07 04:17:35;;;;;;;33.28;20.50;;;9.10;99.90;;;;;;4922543;28;20161;-73
2021/11/07 04:20:05;;;;;;;28.98;19.95;;;9.00;99.90;;;;;;4933961;28;20137;-66
2021/11/07 04:22:32;;;;;;;36.42;22.52;;;9.00;99.90;;;;;;4940896;28;20134;-74
2021/11/07 04:24:59;;;;;;;26.40;18.88;;;9.00;99.90;;;;;;4944103;28;20070;-74
2021/11/07 04:27:26;;;;;;;33.40;19.10;;;9.00;99.90;;;;;;4940080;28;20134;-69
2021/11/07 04:29:57;;;;;;;32.28;20.20;;;9.00;99.90;;;;;;4950910;28;20061;-64
2021/11/07 04:32:25;;;;;;;31.38;20.83;;;9.00;99.90;;;;;;4932835;28;20229;-68
2021/11/07 04:34:52;;;;;;;28.27;19.15;;;9.00;99.90;;;;;;4923419;28;20818;-64
2021/11/07 04:37:19;;;;;;;29.27;18.88;;;9.00;99.90;;;;;;4923239;28;20051;-64
2021/11/07 04:39:46;;;;;;;27.40;20.13;;;9.00;99.90;;;;;;4923369;28;20090;-64
2021/11/07 04:42:13;;;;;;;27.63;21.13;;;9.00;99.90;;;;;;4923396;28;20500;-74
2021/11/07 04:44:40;;;;;;;33.08;19.85;;;9.00;99.90;;;;;;4924013;28;20109;-75
2021/11/07 04:47:08;;;;;;;19.58;14.75;;;9.00;99.90;;;;;;4922056;28;20051;-68
2021/11/07 04:49:35;;;;;;;20.60;16.48;;;9.00;99.90;;;;;;4922757;28;20497;-64
2021/11/07 04:52:03;;;;;;;23.15;17.30;;;9.00;99.90;;;;;;4928787;28;20101;-64
2021/11/07 04:54:31;;;;;;;25.65;17.15;;;9.00;99.90;;;;;;4948750;28;20099;-73
2021/11/07 04:56:58;;;;;;;29.90;19.20;;;9.00;99.90;;;;;;4942299;28;20072;-63
2021/11/07 04:59:26;;;;;;;28.00;17.17;;;9.00;99.90;;;;;;4940920;28;20257;-73
2021/11/07 05:01:53;;;;;;;21.55;16.70;;;9.00;99.90;;;;;;4941489;28;20356;-65
2021/11/07 05:04:20;;;;;;;25.90;17.38;;;9.00;99.90;;;;;;4940956;28;20066;-64
2021/11/07 05:06:50;;;;;;;23.75;15.35;;;9.00;99.90;;;;;;4940002;28;20077;-69
2021/11/07 05:09:18;;;;;;;22.27;14.75;;;8.90;99.90;;;;;;4936936;28;20133;-65
2021/11/07 05:11:46;;;;;;;20.38;14.43;;;8.90;99.90;;;;;;4945477;28;20527;-65
2021/11/07 05:14:14;;;;;;;21.25;15.02;;;8.90;99.90;;;;;;4944595;28;20078;-66
2021/11/07 05:16:41;;;;;;;22.85;15.98;;;8.90;99.90;;;;;;4939831;28;20050;-67
2021/11/07 05:19:08;;;;;;;25.70;14.77;;;8.90;99.90;;;;;;4923476;28;20133;-68
2021/11/07 05:21:35;;;;;;;29.27;14.32;;;8.90;99.90;;;;;;4918839;28;20212;-71
2021/11/07 05:24:02;;;;;;;21.20;12.95;;;8.90;99.90;;;;;;4923200;28;20130;-75
2021/11/07 05:26:29;;;;;;;28.65;17.55;;;8.90;99.90;;;;;;4923799;28;20149;-75
2021/11/07 05:28:56;;;;;;;19.23;14.50;;;8.90;99.90;;;;;;4939281;28;20066;-69
2021/11/07 05:31:23;;;;;;;15.43;12.45;;;8.90;99.90;;;;;;4924759;28;20238;-67
2021/11/07 05:33:51;;;;;;;21.25;13.23;;;8.90;99.90;;;;;;4937876;28;20058;-65
2021/11/07 05:36:18;;;;;;;18.55;12.90;;;8.90;99.90;;;;;;4939486;28;20070;-76
2021/11/07 05:38:45;;;;;;;16.90;13.48;;;8.90;99.90;;;;;;4940705;28;20075;-67
2021/11/07 05:41:12;;;;;;;15.98;13.75;;;8.80;99.90;;;;;;4934676;28;20522;-71
2021/11/07 05:43:41;;;;;;;15.18;11.75;;;8.80;99.90;;;;;;4939932;28;20079;-65
2021/11/07 05:46:08;;;;;;;13.57;11.65;;;8.90;99.90;;;;;;4938700;28;20141;-71
2021/11/07 05:48:39;;;;;;;15.18;11.77;;;8.80;99.90;;;;;;4943365;28;20134;-65
2021/11/07 05:51:07;;;;;;;11.63;10.52;;;8.80;99.90;;;;;;4944319;28;20047;-71
2021/11/07 05:53:34;;;;;;;11.32;10.02;;;8.80;99.90;;;;;;4945580;28;20404;-64
2021/11/07 05:56:01;;;;;;;17.77;11.75;;;8.80;99.90;;;;;;4941691;28;20121;-65
2021/11/07 05:58:28;;;;;;;17.70;9.27;;;8.80;99.90;;;;;;4942216;28;20816;-69
2021/11/07 06:00:56;;;;;;;16.25;9.25;;;8.80;99.90;;;;;;4940954;28;20151;-64
2021/11/07 06:03:23;;;;;;;14.10;8.85;;;8.80;99.90;;;;;;4939064;28;20515;-67
2021/11/07 06:05:50;;;;;;;11.48;8.70;;;8.80;99.90;;;;;;4940740;28;20050;-68
2021/11/07 06:08:17;;;;;;;9.75;7.82;;;8.80;99.90;;;;;;4940061;28;20078;-64
2021/11/07 06:10:44;;;;;;;12.85;7.22;;;8.80;99.90;;;;;;4939694;28;20154;-64
2021/11/07 06:13:11;;;;;;;11.18;6.88;;;8.80;99.90;;;;;;4936623;28;20537;-68
2021/11/07 06:15:38;;;;;;;7.93;6.13;;;8.80;99.90;;;;;;4936411;28;20683;-65
2021/11/07 06:18:06;;;;;;;9.55;5.80;;;8.80;99.90;;;;;;4940699;28;20778;-65
2021/11/07 06:20:33;;;;;;;9.52;5.65;;;8.90;99.90;;;;;;4937810;28;20043;-65
2021/11/07 06:23:01;;;;;;;6.43;5.88;;;8.90;99.90;;;;;;4938392;28;20054;-65
2021/11/07 06:25:28;;;;;;;7.93;5.68;;;8.90;99.90;;;;;;4936675;28;20165;-67
2021/11/07 06:27:57;;;;;;;7.65;5.68;;;8.90;99.90;;;;;;4915947;28;20226;-67
2021/11/07 06:30:24;;;;;;;7.90;5.30;;;8.90;99.90;;;;;;4918681;28;20575;-70
2021/11/07 06:32:51;;;;;;;5.55;3.92;;;8.90;99.90;;;;;;4917452;28;20142;-66
2021/11/07 06:35:18;;;;;;;8.23;4.65;;;8.90;99.90;;;;;;4937402;28;20129;-71
2021/11/07 06:37:45;;;;;;;6.22;4.75;;;8.90;99.90;;;;;;4932971;28;20150;-64
2021/11/07 06:40:13;;;;;;;10.52;4.63;;;8.90;99.90;;;;;;4944888;28;20130;-71
2021/11/07 06:42:40;;;;;;;8.98;4.43;;;8.90;99.90;;;;;;4932094;28;20046;-64
2021/11/07 06:45:10;;;;;;;8.65;4.97;;;8.90;99.90;;;;;;4932536;28;20177;-64
2021/11/07 06:47:37;;;;;;;7.53;3.78;;;8.90;99.90;;;;;;4915193;28;20165;-64
2021/11/07 06:50:06;;;;;;;7.53;4.70;;;8.90;99.90;;;;;;4921249;28;20169;-69
2021/11/07 06:52:33;;;;;;;5.70;4.75;;;8.90;99.90;;;;;;4933322;28;20078;-71
2021/11/07 06:55:01;;;;;;;6.57;4.13;;;8.90;99.90;;;;;;4929356;28;20047;-71
2021/11/07 06:57:28;;;;;;;7.78;4.75;;;8.90;99.90;;;;;;4912846;28;20051;-69
2021/11/07 06:59:55;;;;;;;6.00;4.63;;;8.90;99.90;;;;;;4914104;28;20137;-64
2021/11/07 07:02:23;;;;;;;7.22;4.60;;;9.00;99.90;;;;;;4910012;28;20110;-65
2021/11/07 07:04:50;;;;;;;7.93;5.25;;;9.00;99.90;;;;;;4917952;28;21716;-72
2021/11/07 07:07:18;;;;;;;12.55;6.15;;;9.00;99.90;;;;;;4932733;28;20208;-64
2021/11/07 07:09:49;;;;;;;8.27;5.65;;;9.00;99.90;;;;;;4934309;28;20121;-64
2021/11/07 07:15:05;;;;;;;6.30;4.70;;;9.00;99.90;;;;;;4915491;28;19937;-68
2021/11/07 07:17:41;;;;;;;16.48;4.78;;;9.00;99.90;;;;;;4914635;28;20102;-68
2021/11/07 07:25:49;;;;;;;6.43;5.22;;;9.10;99.90;;;;;;4937339;28;20051;-65
2021/11/07 07:31:34;;;;;;;13.55;5.07;;;9.10;99.90;;;;;;4929018;28;20141;-75
2021/11/07 07:34:09;;;;;;;9.23;5.70;;;9.20;99.90;;;;;;4937640;28;20059;-74
2021/11/07 07:36:37;;;;;;;18.17;7.65;;;9.20;99.90;;;;;;4933070;28;20074;-67
2021/11/07 07:39:08;;;;;;;11.52;7.22;;;9.20;99.90;;;;;;4936511;28;20047;-65
2021/11/07 07:41:35;;;;;;;9.38;7.20;;;9.20;99.90;;;;;;4934972;28;20050;-72
2021/11/07 07:44:07;;;;;;;9.13;6.53;;;9.20;99.90;;;;;;4931572;28;20181;-65
2021/11/07 07:46:37;;;;;;;7.80;6.45;;;9.30;99.90;;;;;;4933920;28;20074;-65
2021/11/07 07:49:04;;;;;;;6.72;5.88;;;9.30;99.90;;;;;;4934326;28;20468;-71
2021/11/07 07:51:31;;;;;;;10.13;7.13;;;9.30;99.90;;;;;;4932937;28;20215;-67
2021/11/07 07:54:02;;;;;;;8.45;6.10;;;9.30;99.90;;;;;;4934853;28;22248;-71
2021/11/07 07:56:30;;;;;;;8.13;5.75;;;9.30;99.90;;;;;;4930098;28;20480;-68
2021/11/07 07:58:57;;;;;;;7.63;4.82;;;9.40;99.90;;;;;;4932911;28;20056;-74
2021/11/07 08:01:24;;;;;;;7.13;4.40;;;9.30;99.90;;;;;;4933378;28;20054;-74
2021/11/07 08:03:51;;;;;;;7.80;4.60;;;9.40;99.90;;;;;;4920861;28;20078;-65
2021/11/07 08:06:19;;;;;;;6.85;3.30;;;9.40;99.90;;;;;;4912699;28;20225;-64
2021/11/07 08:08:46;;;;;;;8.40;4.25;;;9.40;99.90;;;;;;4911491;28;20058;-71
2021/11/07 08:11:14;;;;;;;8.55;4.10;;;9.40;99.90;;;;;;4921461;28;21732;-65
2021/11/07 08:13:42;;;;;;;14.38;5.32;;;9.40;99.90;;;;;;4933554;28;20120;-66
2021/11/07 08:16:09;;;;;;;7.78;4.38;;;9.40;99.90;;;;;;4933356;28;20803;-65
2021/11/07 08:18:36;;;;;;;7.10;3.70;;;9.40;99.90;;;;;;4933693;28;20129;-64
2021/11/07 08:21:03;;;;;;;4.55;3.58;;;9.40;99.90;;;;;;4934010;28;20050;-65
2021/11/07 08:23:32;;;;;;;6.38;3.97;;;9.40;99.90;;;;;;4935256;28;20184;-67
2021/11/07 08:26:01;;;;;;;4.57;2.97;;;9.40;99.90;;;;;;4933070;28;20054;-65
2021/11/07 08:28:30;;;;;;;3.33;3.03;;;9.40;99.90;;;;;;4934487;28;20154;-67
2021/11/07 08:31:12;;;;;;;5.60;3.15;;;9.40;99.90;;;;;;4937339;28;20146;-65
2021/11/07 08:33:42;;;;;;;3.78;3.35;;;9.40;99.90;;;;;;4937234;28;20106;-65
2021/11/07 08:36:13;;;;;;;5.60;3.45;;;9.40;99.90;;;;;;4938856;28;20137;-64
2021/11/07 08:38:48;;;;;;;9.73;3.50;;;9.40;99.90;;;;;;4949452;28;20078;-64
2021/11/07 08:41:17;;;;;;;5.28;3.15;;;9.40;99.90;;;;;;4933828;28;20061;-67
2021/11/07 09:00:32;;;;;;;3.17;2.53;;;9.50;99.90;;;;;;4934802;28;20141;-72
2021/11/07 09:03:18;;;;;;;3.47;2.38;;;9.50;99.90;;;;;;4938575;28;20046;-67
2021/11/07 09:08:18;;;;;;;6.30;2.45;;;9.60;99.90;;;;;;4939541;28;20046;-68
2021/11/07 09:10:46;;;;;;;3.47;1.87;;;9.60;99.90;;;;;;4935003;28;20039;-71
2021/11/07 09:13:14;;;;;;;7.40;2.50;;;9.60;99.90;;;;;;4937946;28;20213;-68
2021/11/07 09:15:44;;;;;;;6.53;2.10;;;9.70;99.90;;;;;;4935086;28;20154;-67
2021/11/07 09:18:12;;;;;;;3.40;2.70;;;9.70;99.90;;;;;;4940347;28;20487;-77
2021/11/07 09:33:49;;;;;;;4.22;1.92;;;9.90;99.90;;;;;;4938450;28;20051;-66
2021/11/07 09:38:57;;;;;;;4.05;2.90;;;10.00;99.90;;;;;;4936606;28;20157;-65
2021/11/07 09:41:39;;;;;;;6.93;2.55;;;10.00;99.90;;;;;;4937660;28;20042;-65
2021/11/07 09:44:15;;;;;;;5.82;2.35;;;10.00;99.90;;;;;;4936079;28;20058;-65
2021/11/07 09:46:52;;;;;;;3.83;2.05;;;10.00;99.90;;;;;;4931966;28;20156;-66
2021/11/07 09:49:28;;;;;;;3.20;2.50;;;10.00;99.90;;;;;;4936065;28;20074;-65
2021/11/07 09:52:08;;;;;;;1.88;1.70;;;10.00;99.90;;;;;;4937504;28;20500;-69
2021/11/07 09:54:36;;;;;;;4.45;2.60;;;9.90;99.90;;;;;;4936211;28;20132;-64
2021/11/07 09:57:05;;;;;;;5.60;2.40;;;10.00;99.90;;;;;;4937701;28;20133;-65
2021/11/07 09:59:32;;;;;;;6.35;3.80;;;10.00;99.90;;;;;;4934339;28;20147;-65
2021/11/07 10:02:00;;;;;;;5.93;2.55;;;10.00;99.90;;;;;;4933096;28;20196;-67
2021/11/07 10:04:31;;;;;;;6.53;2.80;;;9.90;99.90;;;;;;4933288;28;20112;-64
2021/11/07 10:07:16;;;;;;;6.13;3.35;;;9.90;99.90;;;;;;4937514;28;20563;-68
2021/11/07 10:09:44;;;;;;;7.28;3.40;;;9.90;99.90;;;;;;4936304;28;20046;-65
2021/11/07 10:12:16;;;;;;;3.80;2.63;;;9.90;99.90;;;;;;4938903;28;20058;-67
2021/11/07 10:14:50;;;;;;;3.50;2.45;;;9.90;99.90;;;;;;4934914;28;20077;-65
2021/11/07 10:17:28;;;;;;;4.85;2.42;;;9.90;99.90;;;;;;4937247;28;21607;-64
2021/11/07 10:23:06;;;;;;;10.13;4.60;;;9.80;99.90;;;;;;4933750;28;20089;-69
2021/11/07 10:26:01;;;;;;;4.80;2.67;;;9.90;99.90;;;;;;4935125;28;20133;-65
2021/11/07 10:31:38;;;;;;;3.58;2.38;;;9.80;99.90;;;;;;4939263;28;20062;-69
2021/11/07 10:34:31;;;;;;;7.30;5.18;;;9.90;99.90;;;;;;4937662;28;20145;-66
2021/11/07 10:40:03;;;;;;;6.13;2.35;;;10.00;99.90;;;;;;4914760;28;20058;-65
2021/11/07 10:45:28;;;;;;;;;;;10.00;99.90;;;;;;4912424;28;20074;-68
2021/11/07 10:53:27;;;;;;;4.25;2.28;;;9.90;99.90;;;;;;4933324;28;20061;-65
2021/11/07 10:55:58;;;;;;;5.32;2.40;;;9.90;99.90;;;;;;4934558;28;22427;-64
2021/11/07 10:58:29;;;;;;;6.20;2.15;;;9.90;99.90;;;;;;4931208;28;20054;-65
2021/11/07 11:01:00;;;;;;;3.50;2.55;;;10.00;99.90;;;;;;4934467;28;20053;-68
2021/11/07 11:03:28;;;;;;;4.65;2.28;;;10.00;99.90;;;;;;4935896;28;20046;-69
2021/11/07 11:06:09;;;;;;;4.07;2.47;;;10.10;99.90;;;;;;4933169;28;20050;-65
2021/11/07 11:09:01;;;;;;;4.55;2.40;;;10.10;99.90;;;;;;4933880;28;20132;-68
2021/11/07 11:11:37;;;;;;;3.15;1.63;;;10.20;99.90;;;;;;4935172;28;20484;-66
2021/11/07 11:14:17;;;;;;;2.15;1.58;;;10.10;99.90;;;;;;4940062;28;20141;-63
2021/11/07 11:16:58;;;;;;;3.80;2.35;;;10.20;99.90;;;;;;4938907;28;20133;-71
2021/11/07 11:22:21;;;;;;;3.70;1.98;;;10.10;99.90;;;;;;4939701;28;22131;-63
2021/11/07 11:30:07;;;;;;;7.07;2.42;;;10.10;99.90;;;;;;4938674;28;20137;-66
2021/11/07 11:32:48;;;;;;;7.03;1.75;;;10.00;99.90;;;;;;4939130;28;20387;-68
2021/11/07 11:35:33;;;;;;;6.65;1.50;;;10.00;99.90;;;;;;4937119;28;20068;-70
2021/11/07 11:43:01;;;;;;;4.35;2.72;;;10.00;99.90;;;;;;4939525;28;20120;-64
2021/11/07 11:45:34;;;;;;;3.22;1.60;;;9.90;99.90;;;;;;4939304;28;20441;-68
2021/11/07 11:48:14;;;;;;;4.03;1.60;;;9.90;99.90;;;;;;4945214;28;20055;-70
2021/11/07 11:57:55;;;;;;;1.88;1.73;;;9.80;99.90;;;;;;4917656;28;20158;-73
2021/11/07 12:03:19;;;;;;;5.53;2.38;;;9.70;99.90;;;;;;4931039;28;20047;-64
2021/11/07 12:08:28;;;;;;;11.05;2.67;;;9.70;99.90;;;;;;4927142;28;20837;-65
2021/11/07 12:16:37;;;;;;;4.47;1.77;;;9.70;99.90;;;;;;4936456;28;20116;-66
2021/11/07 12:19:06;;;;;;;6.25;2.10;;;9.60;99.90;;;;;;4920124;28;20515;-64
2021/11/07 12:21:51;;;;;;;3.20;2.03;;;9.70;99.90;;;;;;4928563;28;20042;-65
2021/11/07 12:24:22;;;;;;;5.03;1.33;;;9.70;99.90;;;;;;4936589;28;20126;-62
2021/11/07 12:26:49;;;;;;;;;;;9.70;99.90;;;;;;4934494;28;20142;-65
2021/11/07 12:29:37;;;;;;;5.78;2.67;;;9.60;99.90;;;;;;4936691;28;20485;-65
2021/11/07 12:32:07;;;;;;;5.57;2.30;;;9.60;99.90;;;;;;4942992;28;20129;-74
2021/11/07 12:40:51;;;;;;;11.00;1.70;;;9.70;99.90;;;;;;4919101;28;20212;-64
2021/11/07 12:43:42;;;;;;;7.13;2.03;;;9.70;99.90;;;;;;4929441;28;20137;-63
2021/11/07 12:49:15;;;;;;;6.80;1.92;;;9.70;99.90;;;;;;4918418;28;20233;-65
2021/11/07 12:51:49;;;;;;;4.80;1.38;;;9.60;99.90;;;;;;4937626;28;20699;-70
2021/11/07 12:54:24;;;;;;;6.53;1.58;;;9.60;99.90;;;;;;4944566;28;20309;-65
2021/11/07 12:56:56;;;;;;;2.92;1.48;;;9.60;99.90;;;;;;4943562;28;20500;-65
2021/11/07 12:59:31;;;;;;;4.53;1.80;;;9.60;99.90;;;;;;4932480;28;20484;-72
2021/11/07 13:02:25;;;;;;;3.85;1.85;;;9.60;99.90;;;;;;4929853;28;20062;-67
2021/11/07 13:05:17;;;;;;;9.02;1.95;;;9.60;99.90;;;;;;4918040;28;20512;-69
2021/11/07 13:07:59;;;;;;;6.90;1.90;;;9.60;99.90;;;;;;4918767;28;20047;-64
2021/11/07 13:13:05;;;;;;;9.63;1.80;;;9.60;99.90;;;;;;4926396;28;20054;-63
2021/11/07 13:15:42;;;;;;;4.93;1.35;;;9.60;99.90;;;;;;4941916;28;20158;-66
2021/11/07 13:24:43;;;;;;;9.18;2.75;;;9.60;99.90;;;;;;4938070;28;20045;-65
2021/11/07 13:29:33;;;;;;;7.40;1.85;;;9.60;99.90;;;;;;4937871;28;20137;-66
2021/11/07 13:34:53;;;;;;;4.80;1.33;;;9.60;99.90;;;;;;4937303;28;20153;-63
2021/11/07 13:37:22;;;;;;;4.82;1.45;;;9.60;99.90;;;;;;4941578;28;20153;-66
2021/11/07 13:39:49;;;;;;;5.93;2.45;;;9.60;99.90;;;;;;4942950;28;20137;-65
2021/11/07 13:42:16;;;;;;;6.55;1.48;;;9.60;99.90;;;;;;4939012;28;20124;-65
2021/11/07 13:44:50;;;;;;;6.75;2.10;;;9.60;99.90;;;;;;4922640;28;20058;-71
2021/11/07 13:47:17;;;;;;;8.73;2.03;;;9.60;99.90;;;;;;4923678;28;20067;-67
2021/11/07 13:49:52;;;;;;;14.20;3.17;;;9.60;99.90;;;;;;4919255;28;20169;-71
2021/11/07 13:52:20;;;;;;;7.00;2.58;;;9.70;99.90;;;;;;4917093;28;20102;-64
2021/11/07 13:54:47;;;;;;;11.27;2.33;;;9.60;99.90;;;;;;4915417;28;20138;-69
2021/11/07 13:57:14;;;;;;;6.10;1.95;;;9.60;99.90;;;;;;4917402;28;20171;-70
2021/11/07 13:59:45;;;;;;;5.20;1.77;;;9.60;99.90;;;;;;4920735;28;20646;-67
2021/11/07 14:02:19;;;;;;;7.82;1.65;;;9.60;99.90;;;;;;4918202;28;20138;-65
2021/11/07 14:04:49;;;;;;;13.93;2.40;;;9.60;99.90;;;;;;4919855;28;20155;-67
2021/11/07 14:07:19;;;;;;;9.23;1.77;;;9.60;99.90;;;;;;4919068;28;20043;-69
2021/11/07 14:10:04;;;;;;;6.05;2.33;;;9.60;99.90;;;;;;4922156;28;20172;-66
2021/11/07 14:12:37;;;;;;;11.48;2.38;;;9.60;99.90;;;;;;4937203;28;20058;-71
2021/11/07 14:15:15;;;;;;;9.98;3.13;;;9.60;99.90;;;;;;4936525;28;20512;-74
2021/11/07 14:17:44;;;;;;;6.90;2.55;;;9.60;99.90;;;;;;4940776;28;20138;-65
2021/11/07 14:20:12;;;;;;;8.55;1.80;;;9.60;99.90;;;;;;4936237;28;21220;-65
2021/11/07 14:23:02;;;;;;;9.55;2.92;;;9.60;99.90;;;;;;4937341;28;20149;-69
2021/11/07 14:25:29;;;;;;;10.10;1.95;;;9.60;99.90;;;;;;4938257;28;20444;-62
2021/11/07 14:28:08;;;;;;;6.82;2.70;;;9.50;99.90;;;;;;4938887;28;20512;-65
2021/11/07 14:30:41;;;;;;;7.95;2.30;;;9.50;99.90;;;;;;4917013;28;20066;-69
2021/11/07 14:33:12;;;;;;;11.48;2.20;;;9.50;99.90;;;;;;4919539;28;20042;-69
2021/11/07 14:35:42;;;;;;;11.60;2.60;;;9.50;99.90;;;;;;4929123;28;20119;-64
2021/11/07 14:38:18;;;;;;;9.02;2.53;;;9.50;99.90;;;;;;4921924;28;20446;-71
2021/11/07 14:43:18;;;;;;;14.38;2.58;;;9.50;99.90;;;;;;4911817;28;20142;-68
2021/11/07 14:46:09;;;;;;;15.65;2.50;;;9.50;99.90;;;;;;4925557;28;20082;-73
2021/11/07 14:49:14;;;;;;;12.63;2.13;;;9.50;99.90;;;;;;4933533;28;20101;-65
2021/11/07 14:58:09;;;;;;;4.45;1.38;;;9.50;99.90;;;;;;4935133;28;20054;-65
2021/11/07 15:00:11;;;;;;;7.43;2.65;;;9.50;99.90;;;;;;4938877;28;20077;-68
2021/11/07 15:06:08;;;;;;;8.57;2.35;;;9.40;99.90;;;;;;4935039;28;20200;-65
2021/11/07 15:08:38;;;;;;;9.43;3.08;;;9.40;99.90;;;;;;4940725;28;20050;-68
2021/11/07 15:21:16;;;;;;;13.30;2.72;;;9.40;99.90;;;;;;4928641;28;20109;-74
2021/11/07 15:23:45;;;;;;;7.40;1.92;;;9.40;99.90;;;;;;4936856;28;20085;-66
2021/11/07 15:26:31;;;;;;;12.85;2.33;;;9.40;99.90;;;;;;4936952;28;20061;-68
2021/11/07 15:29:09;;;;;;;10.07;2.28;;;9.40;99.90;;;;;;4938098;28;20523;-66
2021/11/07 15:31:37;;;;;;;12.38;2.72;;;9.40;99.90;;;;;;4941722;28;20173;-68
2021/11/07 15:34:08;;;;;;;15.48;2.38;;;9.40;99.90;;;;;;4939221;28;20141;-67
2021/11/07 15:36:45;;;;;;;7.95;2.40;;;9.40;99.90;;;;;;4938883;28;21531;-72
2021/11/07 15:39:17;;;;;;;11.18;2.47;;;9.40;99.90;;;;;;4940595;28;20264;-69
2021/11/07 15:42:23;;;;;;;12.40;2.10;;;9.40;99.90;;;;;;4944380;28;20058;-68
2021/11/07 15:45:04;;;;;;;11.20;2.25;;;9.40;99.90;;;;;;4927806;28;20161;-67
2021/11/07 15:47:44;;;;;;;15.48;2.50;;;9.40;99.90;;;;;;4936063;28;20173;-65
2021/11/07 15:56:15;;;;;;;9.75;2.28;;;9.40;99.90;;;;;;4925017;28;20063;-72
2021/11/07 15:58:53;;;;;;;11.80;3.15;;;9.40;99.90;;;;;;4912302;28;20238;-69
2021/11/07 16:04:03;;;;;;;6.50;2.42;;;9.40;99.90;;;;;;4939436;28;20146;-67
2021/11/07 16:07:00;;;;;;;14.02;2.75;;;9.40;99.90;;;;;;4939553;28;20066;-68
2021/11/07 16:09:39;;;;;;;13.00;3.53;;;9.50;99.90;;;;;;4942977;28;20138;-71
2021/11/07 16:12:15;;;;;;;7.65;2.97;;;9.50;99.90;;;;;;4939163;28;20046;-69
2021/11/07 16:17:12;;;;;;;13.20;2.40;;;9.50;99.90;;;;;;4936431;28;20113;-66